Provisional Data: Susquehanna River near Columbia, PA


Please select a monitoring station.
Please select start date.
Please select start date.

Toggle Unit: C/F Toggle Unit: C/F
Sample Time Temperature (C) Temperature (F) Specific Conductivity (mS/cm) pH   Turbidity (NTU+) DO (mg/L)
12/23/2022 12:00:00 AM 8.336112 47.005 8.029 10.2
12/23/2022 12:15:00 AM 8.364445 47.056 8.025 10.3
12/23/2022 12:30:00 AM 8.440001 47.192 8.018 9.95
12/23/2022 12:45:00 AM 8.610001 47.498 8.035 9.75
12/23/2022 1:00:00 AM 8.572223 47.43 8.043 10.4
12/23/2022 1:15:00 AM 8.562777 47.413 8.047 10.65
12/23/2022 1:30:00 AM 8.628889 47.532 8.044 11.3
12/23/2022 1:45:00 AM 8.525001 47.345 8.058 11.2
12/23/2022 2:00:00 AM 8.506112 47.311 8.054 11.8
12/23/2022 2:15:00 AM 8.468333 47.243 8.05 11.4
12/23/2022 2:30:00 AM 8.345555 47.022 8.058 10.75
12/23/2022 2:45:00 AM 8.383333 47.09 8.046 10.7
12/23/2022 3:00:00 AM 8.383333 47.09 8.04 10.65
12/23/2022 3:15:00 AM 8.37389 47.073 8.042 9.85
12/23/2022 3:30:00 AM 8.251112 46.852 8.035 9.85
12/23/2022 3:45:00 AM 8.043333 46.478 8.018 51.2
12/23/2022 4:00:00 AM 7.939445 46.291 7.995 40.4
12/23/2022 4:15:00 AM 7.826113 46.087 7.956 30
12/23/2022 4:30:00 AM 7.778888 46.002 7.896 19.65
12/23/2022 4:45:00 AM 7.769445 45.985 7.85 13.65
12/23/2022 5:00:00 AM 7.882777 46.189 7.819 11
12/23/2022 5:15:00 AM 7.967777 46.342 7.795 10.05
12/23/2022 5:30:00 AM 7.977223 46.359 7.799 8.8
12/23/2022 5:45:00 AM 7.977223 46.359 7.809 8.45
12/23/2022 6:00:00 AM 7.996112 46.393 7.818 8.5
12/23/2022 6:15:00 AM 8.005556 46.41 7.837 8.5
12/23/2022 6:30:00 AM 8.024445 46.444 7.857 8.55
12/23/2022 6:45:00 AM 8.071667 46.529 7.874 9
12/23/2022 7:00:00 AM 8.100001 46.58 7.895 9.3
12/23/2022 7:15:00 AM 8.118888 46.614 7.91 10.65
12/23/2022 7:30:00 AM 8.128333 46.631 7.927 11.7
12/23/2022 7:45:00 AM 8.156666 46.682 7.938 13.15
12/23/2022 8:00:00 AM 8.185001 46.733 7.951 14.1
12/23/2022 8:15:00 AM 8.203888 46.767 7.956 14.55
12/23/2022 8:30:00 AM 8.288888 46.92 7.967 16.3
12/23/2022 8:45:00 AM 8.27 46.886 7.965 19.1
12/23/2022 9:00:00 AM 8.232223 46.818 7.974 22.35
12/23/2022 9:15:00 AM 8.137776 46.648 7.984 33.8
12/23/2022 9:30:00 AM 8.109445 46.597 7.98 34.2
12/23/2022 9:45:00 AM 8.203888 46.767 7.973 38.35
12/23/2022 10:00:00 AM 8.515555 47.328 7.969 37
12/23/2022 10:15:00 AM 8.713889 47.685 7.987 54.3
12/23/2022 10:30:00 AM 8.846111 47.923 8.009 64.7
12/23/2022 10:45:00 AM 8.950001 48.11 8.028 62
12/23/2022 11:00:00 AM 9.280557 48.705 8.044 56.6
12/23/2022 11:15:00 AM 9.686667 49.436 8.065 51.1
12/23/2022 11:30:00 AM 9.620556 49.317 8.064 53.3
12/23/2022 11:45:00 AM 9.762221 49.572 8.081 71.7
12/23/2022 12:00:00 PM 11.00889 51.816 8.05 196.75
12/23/2022 12:15:00 PM 11.17889 52.122 8.025 79.45
12/23/2022 12:30:00 PM 12.66167 54.791 8.022 2.3
12/23/2022 12:45:00 PM 14.93778 58.888 7.977 3
12/23/2022 1:00:00 PM 16.59056 61.863 7.945 3.75
12/23/2022 1:15:00 PM 17.82778 64.09 7.917 4.75
12/23/2022 1:30:00 PM 18.81944 65.875 7.892 5.5
12/23/2022 1:45:00 PM 16.54333 61.778 8.008 55.2
12/23/2022 2:00:00 PM 13.12444 55.624 8.072 48.6
12/23/2022 2:15:00 PM 11.84944 53.329 8.098 48.8
12/23/2022 2:30:00 PM 11.26389 52.275 8.095 47.1
12/23/2022 2:45:00 PM 11.01833 51.833 8.065 49.15
12/23/2022 3:00:00 PM 10.735 51.323 8.032 56.5
12/23/2022 3:15:00 PM 10.28167 50.507 8.022 45.3
12/23/2022 3:30:00 PM 10.00778 50.014 8.047 45
12/23/2022 3:45:00 PM 9.799999 49.64 8.042 40.4
12/23/2022 4:00:00 PM 9.611111 49.3 8.033 39.6
12/23/2022 4:15:00 PM 9.46 49.028 8.023 40.45
12/23/2022 4:30:00 PM 9.422222 48.96 8.018 37.25
12/23/2022 4:45:00 PM 9.233333 48.62 8.009 35.15
12/23/2022 5:00:00 PM 8.987779 48.178 7.997 34.9
12/23/2022 5:15:00 PM 9.006668 48.212 7.99 36.8
12/23/2022 5:30:00 PM 9.016111 48.229 7.98 33.35
12/23/2022 5:45:00 PM 9.063333 48.314 7.974 32.05
12/23/2022 6:00:00 PM 8.921665 48.059 7.967 31.95
12/23/2022 6:15:00 PM 8.987779 48.178 7.969 69.75
12/23/2022 6:30:00 PM 9.176668 48.518 7.967 68
12/23/2022 6:45:00 PM 9.299443 48.739 7.965 68.35
12/23/2022 7:00:00 PM 9.375 48.875 7.96 68.25
12/23/2022 7:15:00 PM 9.337222 48.807 7.958 66.6
12/23/2022 7:30:00 PM 9.063333 48.314 7.955 67.65
12/23/2022 7:45:00 PM 9.006668 48.212 7.945 63.85
12/23/2022 8:00:00 PM 9.053889 48.297 7.934 61.1
12/23/2022 8:15:00 PM 8.940556 48.093 7.92 62.45
12/23/2022 8:30:00 PM 8.902779 48.025 7.897 57.55
12/23/2022 8:45:00 PM 8.883889 47.991 7.882 59.25
12/23/2022 9:00:00 PM 8.959444 48.127 7.825 62.4
12/23/2022 9:15:00 PM 8.883889 47.991 7.778 61
12/23/2022 9:30:00 PM 8.770555 47.787 7.746 61.25
12/23/2022 9:45:00 PM 8.534444 47.362 7.708 51.8
12/23/2022 10:00:00 PM 8.562777 47.413 7.689 45.25
12/23/2022 10:15:00 PM 8.572223 47.43 7.676 43.05
12/23/2022 10:30:00 PM 8.411666 47.141 7.662 41.05
12/23/2022 10:45:00 PM 8.298333 46.937 7.647 43.4
12/23/2022 11:00:00 PM 8.222776 46.801 7.669 43.95
12/23/2022 11:15:00 PM 8.392776 47.107 7.641 43.2
12/23/2022 11:30:00 PM 8.213333 46.784 7.631 43.45
12/24/2022 12:00:00 AM 8.307776 46.954 7.624 59.35
12/24/2022 12:15:00 AM 8.515555 47.328 7.63 56.45
12/24/2022 12:30:00 AM 8.458889 47.226 7.63 60.95
12/24/2022 12:45:00 AM 8.336112 47.005 7.626 63.65
12/24/2022 1:00:00 AM 8.440001 47.192 7.629 63
12/24/2022 1:15:00 AM 8.676112 47.617 7.633 62.6
12/24/2022 1:30:00 AM 8.666666 47.6 7.647 61.9
12/24/2022 1:45:00 AM 8.543889 47.379 7.638 61.25
12/24/2022 2:00:00 AM 8.515555 47.328 7.633 59.3
12/24/2022 2:15:00 AM 8.515555 47.328 7.634 58.85
12/24/2022 2:30:00 AM 8.553333 47.396 7.638 57.3
12/24/2022 2:45:00 AM 8.477777 47.26 7.637 58.85
12/24/2022 3:00:00 AM 8.37389 47.073 7.633 89.55
12/24/2022 3:15:00 AM 8.194445 46.75 7.631 59.95
12/24/2022 3:30:00 AM 8.014999 46.427 7.631 58.95
12/24/2022 3:45:00 AM 8.137776 46.648 7.622 56.8
12/24/2022 4:00:00 AM 8.156666 46.682 7.627 55.4
12/24/2022 4:15:00 AM 8.166112 46.699 7.624 55.45
12/24/2022 4:30:00 AM 8.175556 46.716 7.624 54.7
12/24/2022 4:45:00 AM 8.392776 47.107 7.659 2.65
12/24/2022 5:00:00 AM 9.705556 49.47 7.732 78.3
12/24/2022 5:15:00 AM 9.186111 48.535 7.699 53.8
12/24/2022 5:30:00 AM 9.072779 48.331 7.662 53.55
12/24/2022 5:45:00 AM 9.12 48.416 7.657 54.35
12/24/2022 6:00:00 AM 8.931111 48.076 7.652 53.65
12/24/2022 6:15:00 AM 8.855556 47.94 7.64 34.05
12/24/2022 6:30:00 AM 9.705556 49.47 7.645 73.55
12/24/2022 6:45:00 AM 8.959444 48.127 7.636 33.2
12/24/2022 7:00:00 AM 8.383333 47.09 7.927 28.55
12/24/2022 7:15:00 AM 8.090556 46.563 7.801 31.45
12/24/2022 7:30:00 AM 7.826113 46.087 7.748 29
12/24/2022 7:45:00 AM 7.750556 45.951 7.734 31.6
12/24/2022 8:00:00 AM 7.74111 45.934 7.739 41.55
12/24/2022 8:15:00 AM 7.797777 46.036 7.746 27.6
12/24/2022 8:30:00 AM 7.712777 45.883 7.767 30.5
12/24/2022 8:45:00 AM 7.514445 45.526 7.795 29.85
12/24/2022 9:00:00 AM 7.533334 45.56 7.967 27.55
12/24/2022 9:15:00 AM 7.467223 45.441 8.002 26.7
12/24/2022 9:30:00 AM 7.410556 45.339 7.911 26.55
12/24/2022 9:45:00 AM 7.391667 45.305 7.896 26.7
12/24/2022 10:00:00 AM 7.48611 45.475 7.899 29.1
12/24/2022 10:15:00 AM 7.561666 45.611 7.888 31.45
12/24/2022 10:30:00 AM 7.40111 45.322 7.882 30.8
12/24/2022 10:45:00 AM 7.212221 44.982 7.9 31.95
12/24/2022 11:00:00 AM 7.183889 44.931 7.93 31.35
12/24/2022 11:15:00 AM 7.240557 45.033 7.895 32.1
12/24/2022 11:30:00 AM 7.136667 44.846 7.882 32.6
12/24/2022 11:45:00 AM 7.136667 44.846 7.862 33.3
12/24/2022 12:00:00 PM 7.032778 44.659 7.855 36.05
12/24/2022 12:15:00 PM 7.268888 45.084 7.855 36.35
12/24/2022 12:30:00 PM 7.316111 45.169 7.904 35.15
12/24/2022 12:45:00 PM 7.240557 45.033 7.923 38.65
12/24/2022 1:00:00 PM 7.221667 44.999 7.92 39.7
12/24/2022 1:15:00 PM 7.278334 45.101 7.903 39.9
12/24/2022 1:30:00 PM 7.287777 45.118 7.935 39.9
12/24/2022 1:45:00 PM 7.221667 44.999 7.928 36.25
12/24/2022 2:00:00 PM 7.146111 44.863 7.903 35.1
12/24/2022 2:15:00 PM 7.127221 44.829 7.932 32.3
12/24/2022 2:30:00 PM 7.089445 44.761 7.953 39.45
12/24/2022 2:45:00 PM 6.97611 44.557 7.944 39.6
12/24/2022 3:00:00 PM 6.853333 44.336 7.963 41.5
12/24/2022 3:15:00 PM 6.730556 44.115 8.005 38.05
12/24/2022 3:30:00 PM 6.758889 44.166 7.983 36.5
12/24/2022 3:45:00 PM 6.730556 44.115 7.995 37.65
12/24/2022 4:00:00 PM 6.730556 44.115 8.004 35.9
12/24/2022 4:15:00 PM 6.683332 44.03 8.001 35.5
12/24/2022 4:30:00 PM 6.730556 44.115 8.014 37.5
12/24/2022 4:45:00 PM 6.758889 44.166 8.021 36
12/24/2022 5:00:00 PM 6.758889 44.166 8.022 35.8
12/24/2022 5:15:00 PM 6.777778 44.2 8.025 34.7
12/24/2022 5:30:00 PM 6.692778 44.047 8.03 34.5
12/24/2022 5:45:00 PM 6.796667 44.234 8.033 35.4
12/24/2022 6:00:00 PM 6.673889 44.013 8.032 33.75
12/24/2022 6:15:00 PM 6.702222 44.064 8.037 34.95
12/24/2022 6:30:00 PM 6.626667 43.928 8.037 37.1
12/24/2022 6:45:00 PM 6.664443 43.996 8.036 35.35
12/24/2022 7:00:00 PM 6.702222 44.064 8.043 41.4
12/24/2022 7:15:00 PM 6.607779 43.894 8.047 43.55
12/24/2022 7:30:00 PM 6.532222 43.758 8.049 43.8
12/24/2022 7:45:00 PM 6.475554 43.656 8.049 44.7
12/24/2022 8:00:00 PM 6.57 43.826 8.037 42.75
12/24/2022 8:15:00 PM 6.598333 43.877 8.037 43.95
12/24/2022 8:30:00 PM 6.551111 43.792 8.04 40.65
12/24/2022 8:45:00 PM 6.551111 43.792 8.043 42.1
12/24/2022 9:00:00 PM 6.626667 43.928 8.036 42.3
12/24/2022 9:15:00 PM 6.664443 43.996 8.043 41.1
12/24/2022 9:30:00 PM 6.579443 43.843 8.046 40.3
12/24/2022 9:45:00 PM 6.598333 43.877 8.049 40.75
12/24/2022 10:00:00 PM 6.655 43.979 8.046 38.95
12/24/2022 10:15:00 PM 6.796667 44.234 8.049 38.7
12/24/2022 10:30:00 PM 6.777778 44.2 8.056 39.75
12/24/2022 10:45:00 PM 6.796667 44.234 8.06 38.3
12/24/2022 11:00:00 PM 6.815557 44.268 8.063 41.1
12/24/2022 11:15:00 PM 6.853333 44.336 8.071 31.4
12/24/2022 11:30:00 PM 6.758889 44.166 8.074 31.15
12/25/2022 12:00:00 AM 6.730556 44.115 8.042 43.85
12/25/2022 12:15:00 AM 6.834444 44.302 8.043 42.9
12/25/2022 12:30:00 AM 6.825 44.285 8.049 44.05
12/25/2022 12:45:00 AM 6.825 44.285 8.047 42.55
12/25/2022 1:00:00 AM 6.834444 44.302 8.053 41.85
12/25/2022 1:15:00 AM 6.91 44.438 8.049 37.6
12/25/2022 1:30:00 AM 6.777778 44.2 8.081 34.1
12/25/2022 1:45:00 AM 6.730556 44.115 8.084 33.4
12/25/2022 2:00:00 AM 6.711668 44.081 8.079 32.8
12/25/2022 2:15:00 AM 6.721111 44.098 8.077 32.2
12/25/2022 2:30:00 AM 6.711668 44.081 8.081 33.15
12/25/2022 2:45:00 AM 6.617222 43.911 8.078 33.55
12/25/2022 3:00:00 AM 6.551111 43.792 8.077 32.75
12/25/2022 3:15:00 AM 6.551111 43.792 8.07 33.35
12/25/2022 3:30:00 AM 6.522779 43.741 8.07 33.25
12/25/2022 3:45:00 AM 6.522779 43.741 8.071 32.8
12/25/2022 4:00:00 AM 6.494444 43.69 8.071 32.3
12/25/2022 4:15:00 AM 6.588889 43.86 8.07 32.3
12/25/2022 4:30:00 AM 6.588889 43.86 8.028 64.85
12/25/2022 4:45:00 AM 6.853333 44.336 8.035 56.55
12/25/2022 5:00:00 AM 6.900557 44.421 8.037 55.25
12/25/2022 5:15:00 AM 6.966667 44.54 8.039 54.3
12/25/2022 5:30:00 AM 6.938333 44.489 8.044 54.55
12/25/2022 5:45:00 AM 6.985556 44.574 8.047 53.45
12/25/2022 6:00:00 AM 6.97611 44.557 8.046 54.45
12/25/2022 6:15:00 AM 7.013889 44.625 8.046 53.05
12/25/2022 6:30:00 AM 6.985556 44.574 8.043 53.1
12/25/2022 6:45:00 AM 6.957222 44.523 8.043 52.8
12/25/2022 7:00:00 AM 7.004446 44.608 8.054 51.2
12/25/2022 7:15:00 AM 7.042222 44.676 8.051 49.25
12/25/2022 7:30:00 AM 7.004446 44.608 8.049 49.8
12/25/2022 7:45:00 AM 6.966667 44.54 8.049 48.3
12/25/2022 8:00:00 AM 6.97611 44.557 8.043 48.15
12/25/2022 8:15:00 AM 6.995 44.591 8.04 47.85
12/25/2022 8:30:00 AM 6.947778 44.506 8.035 47.8
12/25/2022 8:45:00 AM 6.947778 44.506 8.035 46.95
12/25/2022 9:00:00 AM 6.97611 44.557 8.037 47.4
12/25/2022 9:15:00 AM 6.985556 44.574 8.043 46.35
12/25/2022 9:30:00 AM 6.91 44.438 8.036 46.75
12/25/2022 9:45:00 AM 6.900557 44.421 8.029 47.2
12/25/2022 10:00:00 AM 6.900557 44.421 8.025 46.7
12/25/2022 10:15:00 AM 6.957222 44.523 8.026 45.65
12/25/2022 10:30:00 AM 6.881667 44.387 7.979 44.95
12/25/2022 10:45:00 AM 7.675 45.815 8.022 39.6
12/25/2022 11:00:00 AM 7.863888 46.155 8.03 39.4
12/25/2022 11:15:00 AM 7.977223 46.359 8.036 41.35
12/25/2022 11:30:00 AM 7.996112 46.393 8.042 41.65
12/25/2022 11:45:00 AM 8.024445 46.444 8.04 41.45
12/25/2022 12:00:00 PM 7.967777 46.342 8.037 41.2
12/25/2022 12:15:00 PM 7.929999 46.274 8.026 48.65
12/25/2022 12:30:00 PM 8.185001 46.733 7.997 79.1
12/25/2022 12:45:00 PM 8.185001 46.733 7.995 58.75
12/25/2022 1:00:00 PM 8.213333 46.784 7.988 54.25
12/25/2022 1:15:00 PM 8.222776 46.801 7.993 47.05
12/25/2022 1:30:00 PM 8.260555 46.869 7.988 50.35
12/25/2022 1:45:00 PM 8.260555 46.869 7.976 53.65
12/25/2022 2:00:00 PM 8.279445 46.903 7.969 54.25
12/25/2022 2:15:00 PM 8.317223 46.971 7.966 47.4
12/25/2022 2:30:00 PM 8.213333 46.784 7.979 47.35
12/25/2022 2:45:00 PM 8.203888 46.767 7.967 56.5
12/25/2022 3:00:00 PM 8.194445 46.75 7.962 45.75
12/25/2022 3:15:00 PM 8.203888 46.767 7.949 43.65
12/25/2022 3:30:00 PM 8.175556 46.716 7.944 43.4
12/25/2022 3:45:00 PM 8.175556 46.716 7.924 43
12/25/2022 4:00:00 PM 8.109445 46.597 7.906 43
12/25/2022 4:15:00 PM 8.156666 46.682 7.886 42.3
12/25/2022 4:30:00 PM 8.147223 46.665 7.862 41.5
12/25/2022 4:45:00 PM 7.920556 46.257 7.825 42
12/25/2022 5:00:00 PM 7.844999 46.121 7.781 42.2
12/25/2022 5:15:00 PM 7.920556 46.257 7.743 39.85
12/25/2022 5:30:00 PM 7.920556 46.257 7.732 40
12/25/2022 5:45:00 PM 7.939445 46.291 7.725 39.65
12/25/2022 6:00:00 PM 7.911112 46.24 7.729 40.25
12/25/2022 6:15:00 PM 8.005556 46.41 7.721 39.15
12/25/2022 6:30:00 PM 8.014999 46.427 7.728 38.75
12/25/2022 6:45:00 PM 7.939445 46.291 7.729 38.7
12/25/2022 7:00:00 PM 7.939445 46.291 7.732 38.2
12/25/2022 7:15:00 PM 8.043333 46.478 7.731 38.7
12/25/2022 7:30:00 PM 8.052776 46.495 7.742 37.4
12/25/2022 7:45:00 PM 7.977223 46.359 7.749 37.9
12/25/2022 8:00:00 PM 7.967777 46.342 7.742 36.3
12/25/2022 8:15:00 PM 7.939445 46.291 7.736 35.6
12/25/2022 8:30:00 PM 8.005556 46.41 7.732 34.95
12/25/2022 8:45:00 PM 7.929999 46.274 7.734 34.65
12/25/2022 9:00:00 PM 7.882777 46.189 7.755 34.6
12/25/2022 9:15:00 PM 7.901667 46.223 7.776 34.05
12/25/2022 9:30:00 PM 7.929999 46.274 7.795 35
12/25/2022 9:45:00 PM 7.873333 46.172 7.813 33.55
12/25/2022 10:00:00 PM 7.712777 45.883 7.825 33.3
12/25/2022 10:15:00 PM 7.703333 45.866 7.832 31.1
12/25/2022 10:30:00 PM 7.693888 45.849 7.843 31.2
12/25/2022 10:45:00 PM 7.712777 45.883 7.853 30.5
12/25/2022 11:00:00 PM 7.580556 45.645 7.865 31.25
12/25/2022 11:15:00 PM 7.561666 45.611 7.868 30.35
12/25/2022 11:30:00 PM 7.495556 45.492 7.875 30.5
12/26/2022 12:00:00 AM 7.448334 45.407 7.886 30.15
12/26/2022 12:15:00 AM 7.523889 45.543 7.892 29.55
12/26/2022 12:30:00 AM 7.523889 45.543 7.896 28.25
12/26/2022 12:45:00 AM 7.684445 45.832 7.895 27.85
12/26/2022 1:00:00 AM 7.797777 46.036 7.904 26.8
12/26/2022 1:15:00 AM 7.844999 46.121 7.918 26.7
12/26/2022 1:30:00 AM 7.769445 45.985 7.944 27.35
12/26/2022 1:45:00 AM 7.703333 45.866 7.958 28
12/26/2022 2:00:00 AM 7.693888 45.849 7.965 28.2
12/26/2022 2:15:00 AM 7.627777 45.73 7.97 27.95
12/26/2022 2:30:00 AM 7.552223 45.594 7.967 28.3
12/26/2022 2:45:00 AM 7.505 45.509 7.958 28.3
12/26/2022 3:00:00 AM 7.552223 45.594 7.951 27.65
12/26/2022 3:15:00 AM 7.618334 45.713 7.946 27.45
12/26/2022 3:30:00 AM 7.646667 45.764 7.951 27.75
12/26/2022 3:45:00 AM 7.580556 45.645 7.96 28.05
12/26/2022 4:00:00 AM 7.57111 45.628 7.966 28
12/26/2022 4:15:00 AM 7.646667 45.764 7.966 27.6
12/26/2022 4:30:00 AM 7.637223 45.747 7.966 26.4
12/26/2022 4:45:00 AM 7.693888 45.849 7.969 26.1
12/26/2022 5:00:00 AM 7.722223 45.9 7.976 26.65
12/26/2022 5:15:00 AM 7.750556 45.951 7.987 27
12/26/2022 5:30:00 AM 7.665556 45.798 7.997 27.45
12/26/2022 5:45:00 AM 7.665556 45.798 8.002 27.6
12/26/2022 6:00:00 AM 7.675 45.815 8.008 28.05
12/26/2022 6:15:00 AM 7.769445 45.985 8.009 27.8
12/26/2022 6:30:00 AM 7.750556 45.951 8.019 28.2
12/26/2022 6:45:00 AM 7.646667 45.764 8.028 28.6
12/26/2022 7:00:00 AM 7.627777 45.73 8.029 28.35
12/26/2022 7:15:00 AM 7.665556 45.798 8.025 28.85
12/26/2022 7:30:00 AM 7.675 45.815 8.023 29.3
12/26/2022 7:45:00 AM 7.59 45.662 8.026 30.15
12/26/2022 8:00:00 AM 7.514445 45.526 8.025 29.9
12/26/2022 8:15:00 AM 7.523889 45.543 8.026 30.7
12/26/2022 8:30:00 AM 7.599445 45.679 8.026 30.7
12/26/2022 8:45:00 AM 7.608889 45.696 8.029 31.45
12/26/2022 9:00:00 AM 7.665556 45.798 8.032 30.65
12/26/2022 9:15:00 AM 7.722223 45.9 8.037 28.95
12/26/2022 9:30:00 AM 7.712777 45.883 8.043 30.5
12/26/2022 9:45:00 AM 7.703333 45.866 8.051 30.25
12/26/2022 10:00:00 AM 7.627777 45.73 8.056 31.35
12/26/2022 10:15:00 AM 7.599445 45.679 8.054 31.1
12/26/2022 10:30:00 AM 7.580556 45.645 8.054 43.8
12/26/2022 10:45:00 AM 7.618334 45.713 8.051 33.75
12/26/2022 11:00:00 AM 7.608889 45.696 8.046 35.9
12/26/2022 11:15:00 AM 7.495556 45.492 8.046 34
12/26/2022 11:30:00 AM 7.457777 45.424 8.049 33.55
12/26/2022 11:45:00 AM 7.533334 45.56 8.049 33.1
12/26/2022 12:00:00 PM 7.59 45.662 8.054 33.05
12/26/2022 12:15:00 PM 7.637223 45.747 8.06 32.25
12/26/2022 12:30:00 PM 7.684445 45.832 8.065 32.5
12/26/2022 12:45:00 PM 7.74111 45.934 8.075 32.05
12/26/2022 1:00:00 PM 7.778888 46.002 8.089 33.1
12/26/2022 1:15:00 PM 7.797777 46.036 8.098 31.6
12/26/2022 1:30:00 PM 7.835556 46.104 8.103 32.55
12/26/2022 1:45:00 PM 7.74111 45.934 8.113 31.85
12/26/2022 2:00:00 PM 7.74111 45.934 8.109 30.65
12/26/2022 2:15:00 PM 7.769445 45.985 8.107 31.6
12/26/2022 2:30:00 PM 7.722223 45.9 8.112 31.85
12/26/2022 2:45:00 PM 7.57111 45.628 8.106 32.35
12/26/2022 3:00:00 PM 7.59 45.662 8.096 32.15
12/26/2022 3:15:00 PM 7.675 45.815 8.085 31.3
12/26/2022 3:30:00 PM 7.731667 45.917 8.089 31.55
12/26/2022 3:45:00 PM 7.731667 45.917 8.092 31.45
12/26/2022 4:00:00 PM 7.750556 45.951 8.092 30.85
12/26/2022 4:15:00 PM 7.797777 46.036 8.102 31.55
12/26/2022 4:30:00 PM 7.76 45.968 8.106 31.5
12/26/2022 4:45:00 PM 7.797777 46.036 8.11 31.45
12/26/2022 5:00:00 PM 7.731667 45.917 8.112 31.75
12/26/2022 5:15:00 PM 7.580556 45.645 8.105 31.4
12/26/2022 5:30:00 PM 7.57111 45.628 8.095 30.85
12/26/2022 5:45:00 PM 7.48611 45.475 8.085 31.9
12/26/2022 6:00:00 PM 7.382221 45.288 8.077 31.55
12/26/2022 6:15:00 PM 7.287777 45.118 8.07 31.2
12/26/2022 6:30:00 PM 7.231111 45.016 8.065 31.5
12/26/2022 6:45:00 PM 7.202777 44.965 8.064 31.75
12/26/2022 7:00:00 PM 7.183889 44.931 8.063 27.8
12/26/2022 7:15:00 PM 7.231111 45.016 8.058 23.95
12/26/2022 7:30:00 PM 7.353889 45.237 8.068 25.05
12/26/2022 7:45:00 PM 7.372777 45.271 8.077 25.65
12/26/2022 8:00:00 PM 7.363334 45.254 8.081 25.6
12/26/2022 8:15:00 PM 7.448334 45.407 8.084 25.2
12/26/2022 8:30:00 PM 7.48611 45.475 8.092 26.6
12/26/2022 8:45:00 PM 7.505 45.509 8.1 26.7
12/26/2022 9:00:00 PM 7.410556 45.339 8.107 26.6
12/26/2022 9:15:00 PM 7.382221 45.288 8.106 27.25
12/26/2022 9:30:00 PM 7.297221 45.135 8.1 26.7
12/26/2022 9:45:00 PM 7.268888 45.084 8.095 27.5
12/26/2022 10:00:00 PM 7.231111 45.016 8.086 27
12/26/2022 10:15:00 PM 7.278334 45.101 8.078 27.15
12/26/2022 10:30:00 PM 7.40111 45.322 8.075 27.1
12/26/2022 10:45:00 PM 7.457777 45.424 8.082 27.4
12/26/2022 11:00:00 PM 7.505 45.509 8.091 27.1
12/26/2022 11:15:00 PM 7.40111 45.322 8.098 28
12/26/2022 11:30:00 PM 7.363334 45.254 8.103 28.15
12/27/2022 12:00:00 AM 7.42 45.356 8.107 28.2
12/27/2022 12:15:00 AM 7.495556 45.492 8.109 29.2
12/27/2022 12:30:00 AM 7.48611 45.475 8.113 29.15
12/27/2022 12:45:00 AM 7.505 45.509 8.113 29.55
12/27/2022 1:00:00 AM 7.48611 45.475 8.114 29.95
12/27/2022 1:15:00 AM 7.476667 45.458 8.11 29.8
12/27/2022 1:30:00 AM 7.325556 45.186 8.112 32.25
12/27/2022 1:45:00 AM 7.25 45.05 8.103 31.7
12/27/2022 2:00:00 AM 7.240557 45.033 8.088 32.65
12/27/2022 2:15:00 AM 7.278334 45.101 8.078 31.95
12/27/2022 2:30:00 AM 7.155557 44.88 8.078 31.6
12/27/2022 2:45:00 AM 7.089445 44.761 8.068 37.8
12/27/2022 3:00:00 AM 6.938333 44.489 8.065 37.4
12/27/2022 3:15:00 AM 6.891111 44.404 8.054 45.9
12/27/2022 3:30:00 AM 6.947778 44.506 8.056 40.55
12/27/2022 3:45:00 AM 7.004446 44.608 8.057 35.55
12/27/2022 4:00:00 AM 7.165 44.897 8.06 34
12/27/2022 4:15:00 AM 7.316111 45.169 8.058 32.05
12/27/2022 4:30:00 AM 7.259445 45.067 8.071 32.05
12/27/2022 4:45:00 AM 7.174445 44.914 8.084 32.7
12/27/2022 5:00:00 AM 7.108332 44.795 8.086 32.4
12/27/2022 5:15:00 AM 7.155557 44.88 8.084 33.05
12/27/2022 5:30:00 AM 7.117777 44.812 8.085 33.25
12/27/2022 5:45:00 AM 7.136667 44.846 8.085 32.75
12/27/2022 6:00:00 AM 7.165 44.897 8.085 32.8
12/27/2022 6:15:00 AM 7.25 45.05 8.084 31.7
12/27/2022 6:30:00 AM 7.278334 45.101 8.093 31.9
12/27/2022 6:45:00 AM 7.221667 44.999 8.102 31.75
12/27/2022 7:00:00 AM 7.193334 44.948 8.102 32.25
12/27/2022 7:15:00 AM 7.268888 45.084 8.096 30.85
12/27/2022 7:30:00 AM 7.278334 45.101 8.102 31.3
12/27/2022 7:45:00 AM 7.306667 45.152 8.103 31.3
12/27/2022 8:00:00 AM 7.372777 45.271 8.105 34.45
12/27/2022 8:15:00 AM 7.48611 45.475 8.106 33.3
12/27/2022 8:30:00 AM 7.495556 45.492 8.116 33.3
12/27/2022 8:45:00 AM 7.533334 45.56 8.123 31.9
12/27/2022 9:00:00 AM 7.533334 45.56 8.126 30.7
12/27/2022 9:15:00 AM 7.552223 45.594 8.123 29.65
12/27/2022 9:30:00 AM 7.561666 45.611 8.127 29.2
12/27/2022 9:45:00 AM 7.57111 45.628 8.13 28.65
12/27/2022 10:00:00 AM 7.608889 45.696 8.13 27.85
12/27/2022 10:15:00 AM 7.693888 45.849 8.124 27.15
12/27/2022 10:30:00 AM 7.703333 45.866 8.128 28.3
12/27/2022 10:45:00 AM 7.618334 45.713 8.13 27.8
12/27/2022 11:00:00 AM 7.59 45.662 8.127 27.75
12/27/2022 11:15:00 AM 7.646667 45.764 8.123 27.25
12/27/2022 11:30:00 AM 7.665556 45.798 8.124 27.7
12/27/2022 11:45:00 AM 7.712777 45.883 8.123 27.9
12/27/2022 12:00:00 PM 7.76 45.968 8.124 28.3
12/27/2022 12:15:00 PM 7.74111 45.934 8.123 29.4
12/27/2022 12:30:00 PM 7.684445 45.832 8.124 28.8
12/27/2022 12:45:00 PM 7.731667 45.917 8.121 28.4
12/27/2022 1:00:00 PM 7.750556 45.951 8.119 29.55
12/27/2022 1:15:00 PM 7.863888 46.155 8.12 31.5
12/27/2022 1:30:00 PM 7.873333 46.172 8.12 32.8
12/27/2022 1:45:00 PM 7.854445 46.138 8.124 29.75
12/27/2022 2:00:00 PM 7.816667 46.07 8.124 27.3
12/27/2022 2:15:00 PM 7.863888 46.155 8.121 27.25
12/27/2022 2:30:00 PM 7.844999 46.121 8.119 25.9
12/27/2022 2:45:00 PM 7.76 45.968 8.114 25.4
12/27/2022 3:00:00 PM 7.797777 46.036 8.11 26.2
12/27/2022 3:15:00 PM 7.665556 45.798 8.103 26.1
12/27/2022 3:30:00 PM 7.59 45.662 8.095 27.6
12/27/2022 3:45:00 PM 7.533334 45.56 8.077 28.5
12/27/2022 4:00:00 PM 7.59 45.662 8.065 28.4
12/27/2022 4:15:00 PM 7.646667 45.764 8.058 29.2
12/27/2022 4:30:00 PM 7.618334 45.713 8.06 36.4
12/27/2022 4:45:00 PM 7.65611 45.781 8.063 35.6
12/27/2022 5:00:00 PM 7.618334 45.713 8.065 47.9
12/27/2022 5:15:00 PM 7.608889 45.696 8.065 48
12/27/2022 5:30:00 PM 7.533334 45.56 8.064 45.85
12/27/2022 5:45:00 PM 7.523889 45.543 8.058 44.1
12/27/2022 6:00:00 PM 7.48611 45.475 8.054 42.5
12/27/2022 6:15:00 PM 7.542777 45.577 8.049 38.4
12/27/2022 6:30:00 PM 7.48611 45.475 8.05 36.85
12/27/2022 6:45:00 PM 7.429445 45.373 8.047 38.3
12/27/2022 7:00:00 PM 7.391667 45.305 8.042 29.15
12/27/2022 7:15:00 PM 7.438889 45.39 8.044 27.75
12/27/2022 7:30:00 PM 7.505 45.509 8.044 28.6
12/27/2022 7:45:00 PM 7.514445 45.526 8.044 28.85
12/27/2022 8:00:00 PM 7.533334 45.56 8.047 29.05
12/27/2022 8:15:00 PM 7.495556 45.492 8.047 26.85
12/27/2022 8:30:00 PM 7.40111 45.322 8.047 26.85
12/27/2022 8:45:00 PM 7.363334 45.254 8.043 26.05
12/27/2022 9:00:00 PM 7.391667 45.305 8.037 25.35
12/27/2022 9:15:00 PM 7.438889 45.39 8.033 24.8
12/27/2022 9:30:00 PM 7.438889 45.39 8.033 25
12/27/2022 9:45:00 PM 7.467223 45.441 8.039 24.4
12/27/2022 10:00:00 PM 7.476667 45.458 8.043 25.3
12/27/2022 10:15:00 PM 7.495556 45.492 8.049 25.35
12/27/2022 10:30:00 PM 7.495556 45.492 8.054 25.25
12/27/2022 10:45:00 PM 7.42 45.356 8.058 25.3
12/27/2022 11:00:00 PM 7.448334 45.407 8.058 24.95
12/27/2022 11:15:00 PM 7.514445 45.526 8.057 24.5
12/27/2022 11:30:00 PM 7.448334 45.407 8.06 25.25
12/28/2022 12:00:00 AM 7.391667 45.305 8.053 24.95
12/28/2022 12:15:00 AM 7.335 45.203 8.058 23.35
12/28/2022 12:30:00 AM 7.316111 45.169 8.058 23.95
12/28/2022 12:45:00 AM 7.25 45.05 8.05 23.9
12/28/2022 1:00:00 AM 7.25 45.05 8.039 24.3
12/28/2022 1:15:00 AM 7.212221 44.982 8.029 23.8
12/28/2022 1:30:00 AM 7.174445 44.914 8.03 24.65
12/28/2022 1:45:00 AM 7.278334 45.101 8.035 24.2
12/28/2022 2:00:00 AM 7.297221 45.135 8.049 24.3
12/28/2022 2:15:00 AM 7.287777 45.118 8.064 23.8
12/28/2022 2:30:00 AM 7.221667 44.999 8.075 24.6
12/28/2022 2:45:00 AM 7.089445 44.761 8.075 25.6
12/28/2022 3:00:00 AM 7.108332 44.795 8.07 25.25
12/28/2022 3:15:00 AM 7.06111 44.71 8.067 25
12/28/2022 3:30:00 AM 6.947778 44.506 8.064 24.8
12/28/2022 3:45:00 AM 6.928889 44.472 8.053 26.6
12/28/2022 4:00:00 AM 7.013889 44.625 8.044 29.8
12/28/2022 4:15:00 AM 7.089445 44.761 8.043 27.3
12/28/2022 4:30:00 AM 7.051667 44.693 8.053 26.55
12/28/2022 4:45:00 AM 7.042222 44.676 8.064 26.5
12/28/2022 5:00:00 AM 6.97611 44.557 8.068 26.7
12/28/2022 5:15:00 AM 6.966667 44.54 8.065 27.9
12/28/2022 5:30:00 AM 6.985556 44.574 8.064 27.3
12/28/2022 5:45:00 AM 7.013889 44.625 8.065 27.6
12/28/2022 6:00:00 AM 7.06111 44.71 8.065 27.55
12/28/2022 6:15:00 AM 7.136667 44.846 8.07 29
12/28/2022 6:30:00 AM 7.212221 44.982 8.081 28
12/28/2022 6:45:00 AM 7.202777 44.965 8.089 27.3
12/28/2022 7:00:00 AM 7.183889 44.931 8.092 28.55
12/28/2022 7:15:00 AM 7.221667 44.999 8.095 27.75
12/28/2022 7:30:00 AM 7.193334 44.948 8.093 30.25
12/28/2022 7:45:00 AM 7.183889 44.931 8.096 29.6
12/28/2022 8:00:00 AM 7.146111 44.863 8.092 32.1
12/28/2022 8:15:00 AM 7.165 44.897 8.088 87.9
12/28/2022 8:30:00 AM 7.146111 44.863 8.088 44.4
12/28/2022 8:45:00 AM 7.174445 44.914 8.086 53.25
12/28/2022 9:00:00 AM 7.174445 44.914 8.091 47.8
12/28/2022 9:15:00 AM 7.297221 45.135 8.109 173.4
12/28/2022 9:30:00 AM 7.344445 45.22 8.112 49.3
12/28/2022 9:45:00 AM 7.335 45.203 8.117 35.95
12/28/2022 10:00:00 AM 7.552223 45.594 8.124 35.5
12/28/2022 10:15:00 AM 7.939445 46.291 8.116 41.15
12/28/2022 10:30:00 AM 8.619444 47.515 8.085 49.3
12/28/2022 10:45:00 AM 8.364445 47.056 8.105 24.25
12/28/2022 11:00:00 AM 8.137776 46.648 8.119 20.6
12/28/2022 11:15:00 AM 8.071667 46.529 8.123 19.85
12/28/2022 11:30:00 AM 7.901667 46.223 8.12 33.2
12/28/2022 11:45:00 AM 7.835556 46.104 8.119 32.15
12/28/2022 12:00:00 PM 7.778888 46.002 8.12 25.85
12/28/2022 12:15:00 PM 7.778888 46.002 8.119 22.35
12/28/2022 12:30:00 PM 7.731667 45.917 8.117 19.4
12/28/2022 12:45:00 PM 7.731667 45.917 8.116 17.5
12/28/2022 1:00:00 PM 7.693888 45.849 8.113 18.15
12/28/2022 1:15:00 PM 7.665556 45.798 8.112 23.75
12/28/2022 1:30:00 PM 7.344445 45.22 8.106 18.2
12/28/2022 1:45:00 PM 7.089445 44.761 8.078 16.9
12/28/2022 2:00:00 PM 6.825 44.285 8.053 16.8
12/28/2022 2:15:00 PM 7.108332 44.795 8.035 15.45
12/28/2022 2:30:00 PM 7.165 44.897 8.028 15.65
12/28/2022 2:45:00 PM 7.089445 44.761 8.028 18.35
12/28/2022 3:00:00 PM 7.287777 45.118 8.028 18.35
12/28/2022 3:15:00 PM 7.278334 45.101 8.029 17.15
12/28/2022 3:30:00 PM 7.202777 44.965 8.042 18.15
12/28/2022 3:45:00 PM 7.221667 44.999 8.043 17.3
12/28/2022 4:00:00 PM 7.306667 45.152 8.049 17.15
12/28/2022 4:15:00 PM 7.278334 45.101 8.058 16.5
12/28/2022 4:30:00 PM 7.25 45.05 8.07 16.3
12/28/2022 4:45:00 PM 7.098889 44.778 8.071 16.5
12/28/2022 5:00:00 PM 6.995 44.591 8.063 16.1
12/28/2022 5:15:00 PM 6.947778 44.506 8.046 16
12/28/2022 5:30:00 PM 7.108332 44.795 8.036 15.95
12/28/2022 5:45:00 PM 7.165 44.897 8.039 15.6
12/28/2022 6:00:00 PM 7.240557 45.033 8.049 15.55
12/28/2022 6:15:00 PM 7.306667 45.152 8.061 15.35
12/28/2022 6:30:00 PM 7.306667 45.152 8.082 15.4
12/28/2022 6:45:00 PM 7.552223 45.594 8.102 18.2
12/28/2022 7:00:00 PM 7.57111 45.628 8.112 17.05
12/28/2022 7:15:00 PM 7.448334 45.407 8.113 16.85
12/28/2022 7:30:00 PM 7.429445 45.373 8.116 16.7
12/28/2022 7:45:00 PM 7.523889 45.543 8.114 16.25
12/28/2022 8:00:00 PM 7.608889 45.696 8.117 16.55
12/28/2022 8:15:00 PM 7.65611 45.781 8.119 15.9
12/28/2022 8:30:00 PM 7.665556 45.798 8.123 15.85
12/28/2022 8:45:00 PM 7.646667 45.764 8.126 15.4
12/28/2022 9:00:00 PM 7.599445 45.679 8.124 15.35
12/28/2022 9:15:00 PM 7.65611 45.781 8.123 15.5
12/28/2022 9:30:00 PM 7.561666 45.611 8.127 16.3
12/28/2022 9:45:00 PM 7.410556 45.339 8.124 16
12/28/2022 10:00:00 PM 7.382221 45.288 8.119 15.75
12/28/2022 10:15:00 PM 7.476667 45.458 8.112 15.9
12/28/2022 10:30:00 PM 7.438889 45.39 8.106 15.7
12/28/2022 10:45:00 PM 7.467223 45.441 8.103 15.4
12/28/2022 11:00:00 PM 7.372777 45.271 8.1 15.1
12/28/2022 11:15:00 PM 7.542777 45.577 8.093 15.15
12/28/2022 11:30:00 PM 7.59 45.662 8.098 15.5
12/29/2022 12:00:00 AM 7.344445 45.22 8.106 14.65
12/29/2022 12:15:00 AM 7.25 45.05 8.096 14.45
12/29/2022 12:30:00 AM 7.212221 44.982 8.084 15.35
12/29/2022 12:45:00 AM 7.335 45.203 8.072 14.7
12/29/2022 1:00:00 AM 7.344445 45.22 8.07 14.9
12/29/2022 1:15:00 AM 7.410556 45.339 8.065 14.9
12/29/2022 1:30:00 AM 7.448334 45.407 8.072 14.4
12/29/2022 1:45:00 AM 7.476667 45.458 8.079 14.9
12/29/2022 2:00:00 AM 7.40111 45.322 8.085 14.5
12/29/2022 2:15:00 AM 7.335 45.203 8.089 13.9
12/29/2022 2:30:00 AM 7.174445 44.914 8.088 14.5
12/29/2022 2:45:00 AM 7.089445 44.761 8.077 15.05
12/29/2022 3:00:00 AM 7.117777 44.812 8.064 14.45
12/29/2022 3:15:00 AM 7.098889 44.778 8.051 13.95
12/29/2022 3:30:00 AM 7.06111 44.71 8.05 14.05
12/29/2022 3:45:00 AM 7.013889 44.625 8.043 14.25
12/29/2022 4:00:00 AM 7.193334 44.948 8.037 14.15
12/29/2022 4:15:00 AM 7.306667 45.152 8.035 13.55
12/29/2022 4:30:00 AM 7.410556 45.339 8.04 13.6
12/29/2022 4:45:00 AM 7.457777 45.424 8.053 13.45
12/29/2022 5:00:00 AM 7.476667 45.458 8.065 13.2
12/29/2022 5:15:00 AM 7.523889 45.543 8.082 13
12/29/2022 5:30:00 AM 7.48611 45.475 8.098 13.75
12/29/2022 5:45:00 AM 7.40111 45.322 8.103 13.15
12/29/2022 6:00:00 AM 7.325556 45.186 8.105 13.3
12/29/2022 6:15:00 AM 7.344445 45.22 8.096 12.9
12/29/2022 6:30:00 AM 7.353889 45.237 8.096 12.7
12/29/2022 6:45:00 AM 7.325556 45.186 8.099 12.8
1/4/2023 12:00:00 AM 6.806111 44.251 7.738 32.05
1/4/2023 12:15:00 AM 7.051667 44.693 7.769 32.8
1/4/2023 12:30:00 AM 6.938333 44.489 7.745 32.2
1/4/2023 12:45:00 AM 6.683332 44.03 7.745 31.3
1/4/2023 1:00:00 AM 6.815557 44.268 7.728 31.8
1/4/2023 1:15:00 AM 6.721111 44.098 7.735 125.8
1/4/2023 1:30:00 AM 6.919446 44.455 7.715 36
1/4/2023 1:45:00 AM 7.098889 44.778 7.689 35.9
1/4/2023 2:00:00 AM 7.136667 44.846 7.734 33.65
1/4/2023 2:15:00 AM 7.174445 44.914 7.725 34.9
1/4/2023 2:30:00 AM 7.193334 44.948 7.728 35
1/4/2023 2:45:00 AM 6.995 44.591 7.724 36.4
1/4/2023 3:00:00 AM 7.146111 44.863 7.731 34.4
1/4/2023 3:15:00 AM 7.117777 44.812 7.728 34.05
1/4/2023 3:30:00 AM 7.325556 45.186 7.714 35.5
1/4/2023 3:45:00 AM 7.306667 45.152 7.743 34.9
1/4/2023 4:00:00 AM 7.165 44.897 7.725 33.15
1/4/2023 4:15:00 AM 7.25 45.05 7.755 33.65
1/4/2023 4:30:00 AM 7.202777 44.965 7.725 34.3
1/4/2023 4:45:00 AM 7.495556 45.492 7.728 32.1
1/4/2023 5:00:00 AM 7.505 45.509 7.708 34.15
1/4/2023 5:15:00 AM 7.495556 45.492 7.748 34.75
1/4/2023 5:30:00 AM 7.580556 45.645 7.715 34.85
1/4/2023 5:45:00 AM 7.552223 45.594 7.703 33.75
1/4/2023 6:00:00 AM 7.523889 45.543 7.742 37.65
1/4/2023 6:15:00 AM 7.618334 45.713 7.697 33.25
1/4/2023 6:30:00 AM 7.637223 45.747 7.679 33.45
1/4/2023 6:45:00 AM 7.788333 46.019 7.636 31.9
1/4/2023 7:00:00 AM 7.684445 45.832 7.694 29.9
1/4/2023 7:15:00 AM 8.317223 46.971 7.722 26.75
1/4/2023 7:30:00 AM 8.610001 47.498 7.658 27.15
1/4/2023 7:45:00 AM 9.072779 48.331 7.769 26.5
1/4/2023 8:00:00 AM 9.148333 48.467 7.86 25.35
1/4/2023 8:15:00 AM 9.478889 49.062 7.864 24.1
1/4/2023 8:30:00 AM 9.799999 49.64 7.857 24.1
1/4/2023 8:45:00 AM 10.225 50.405 7.874 22.9
1/4/2023 9:00:00 AM 10.41389 50.745 7.889 23.9
1/4/2023 9:15:00 AM 10.49889 50.898 7.883 24.05
1/4/2023 9:30:00 AM 10.65944 51.187 7.883 32
1/4/2023 9:45:00 AM 11.02778 51.85 7.876 23.25
1/4/2023 10:00:00 AM 11.33944 52.411 7.886 22.8
1/4/2023 10:15:00 AM 11.60389 52.887 7.886 22.25
1/4/2023 10:30:00 AM 11.755 53.159 7.892 22.05
1/4/2023 10:45:00 AM 11.80222 53.244 7.934 21.85
1/4/2023 11:00:00 AM 11.40555 52.53 7.928 22.65
1/4/2023 11:15:00 AM 11.42444 52.564 7.928 22.2
1/4/2023 11:30:00 AM 11.37722 52.479 7.937 22.15
1/4/2023 11:45:00 AM 11.46222 52.632 7.935 22.65
1/4/2023 12:00:00 PM 11.60389 52.887 7.932 22.2
1/4/2023 12:15:00 PM 11.65111 52.972 7.939 3.8
1/4/2023 12:30:00 PM 9.545 49.181 7.897 40.8
1/4/2023 12:45:00 PM 7.958333 46.325 7.902 23.55
1/4/2023 1:00:00 PM 7.136667 44.846 7.879 26.9
1/4/2023 1:15:00 PM 6.966667 44.54 7.91 27
1/4/2023 1:30:00 PM 6.928889 44.472 7.925 26.55
1/4/2023 1:45:00 PM 6.91 44.438 7.909 25.8
1/4/2023 2:00:00 PM 6.928889 44.472 7.872 28.05
1/4/2023 2:15:00 PM 7.240557 45.033 7.851 27.25
1/4/2023 2:30:00 PM 7.098889 44.778 7.837 27.65
1/4/2023 2:45:00 PM 6.91 44.438 7.811 26.15
1/6/2023 12:00:00 AM 6.088333 42.959 7.442 37.4
1/6/2023 12:15:00 AM 5.512223 41.922 7.456 36.5
1/6/2023 12:30:00 AM 3.736668 38.726 7.482 38.55
1/6/2023 12:45:00 AM 3.519444 38.335 7.508 36.2
1/6/2023 1:00:00 AM 3.453333 38.216 7.508 35.9
1/6/2023 1:15:00 AM 3.44389 38.199 7.521 36.95
1/6/2023 1:30:00 AM 3.406111 38.131 7.525 36.55
1/6/2023 1:45:00 AM 3.491111 38.284 7.542 35.7
1/6/2023 2:00:00 AM 3.453333 38.216 7.543 36.35
1/6/2023 2:15:00 AM 3.500555 38.301 7.533 36.75
1/6/2023 2:30:00 AM 3.472222 38.25 7.556 36.15
1/6/2023 2:45:00 AM 3.44389 38.199 7.536 36.4
1/6/2023 3:00:00 AM 3.481666 38.267 7.518 35.4
1/6/2023 3:15:00 AM 3.519444 38.335 7.526 36.2
1/6/2023 3:30:00 AM 3.500555 38.301 7.545 35.2
1/6/2023 3:45:00 AM 3.481666 38.267 7.559 39
1/6/2023 4:00:00 AM 3.538333 38.369 7.573 35.5
1/6/2023 4:15:00 AM 3.538333 38.369 7.581 35.75
1/6/2023 4:30:00 AM 3.557222 38.403 7.602 35.95
1/6/2023 4:45:00 AM 3.557222 38.403 7.608 36.25
1/6/2023 5:00:00 AM 3.595 38.471 7.637 36.55
1/6/2023 5:15:00 AM 3.632779 38.539 7.671 36.7
1/6/2023 5:30:00 AM 3.604444 38.488 7.678 35.55
1/6/2023 5:45:00 AM 3.661111 38.59 7.701 35.75
1/6/2023 6:00:00 AM 3.651668 38.573 7.714 37.5
1/6/2023 6:15:00 AM 3.727222 38.709 7.715 35.85
1/6/2023 6:30:00 AM 3.68 38.624 7.725 36.1
1/6/2023 6:45:00 AM 3.689444 38.641 7.759 35.1
1/6/2023 7:00:00 AM 3.793333 38.828 7.773 35.6
1/6/2023 7:15:00 AM 3.783889 38.811 7.771 35.75
1/6/2023 7:30:00 AM 3.708333 38.675 7.785 35.1
1/6/2023 7:45:00 AM 3.708333 38.675 7.799 35.15
1/6/2023 8:00:00 AM 3.85 38.93 7.805 34.8
1/6/2023 8:15:00 AM 3.916111 39.049 7.802 36.65
1/6/2023 8:30:00 AM 3.972778 39.151 7.822 35.05
1/6/2023 8:45:00 AM 4.038889 39.27 7.818 41.45
1/6/2023 9:00:00 AM 4.973888 40.953 8.05 2.1
1/6/2023 9:15:00 AM 7.278334 45.101 8.05 2.1
1/6/2023 9:30:00 AM 9.072779 48.331 8.028 2.5
1/6/2023 9:45:00 AM 10.47056 50.847 7.998 2.85
1/6/2023 10:00:00 AM 11.79278 53.227 7.973 3.2
1/6/2023 10:15:00 AM 12.48222 54.468 7.99 3.6
1/6/2023 10:30:00 AM 13.47389 56.253 7.958 3.65
1/6/2023 10:45:00 AM 14.28611 57.715 7.93 3.65
1/6/2023 11:00:00 AM 12.61444 54.706 7.962 3.65
1/6/2023 11:15:00 AM 8.997222 48.195 7.959 3.65
1/6/2023 11:30:00 AM 7.646667 45.764 7.973 3.65
1/6/2023 11:45:00 AM 7.127221 44.829 7.995 30.65
1/6/2023 12:00:00 PM 7.127221 44.829 7.98 23.55
1/6/2023 12:15:00 PM 7.221667 44.999 7.965 22.95
1/6/2023 12:30:00 PM 7.240557 45.033 7.951 23.25
1/10/2023 12:00:00 AM 6.088333 42.959 7.57 17.6
1/10/2023 12:15:00 AM 6.06 42.908 7.58 22.6
1/10/2023 12:30:00 AM 6.022223 42.84 7.554 29.4
1/10/2023 12:45:00 AM 6.182779 43.129 7.54 20.85
1/10/2023 1:00:00 AM 6.296111 43.333 7.549 21.45
1/10/2023 1:15:00 AM 6.258333 43.265 7.55 17.95
1/10/2023 1:30:00 AM 6.4 43.52 7.54 17
1/10/2023 1:45:00 AM 6.494444 43.69 7.546 16.15
1/10/2023 2:00:00 AM 6.409444 43.537 7.559 16.65
1/10/2023 2:15:00 AM 6.456667 43.622 7.545 14.25
1/10/2023 2:30:00 AM 6.390554 43.503 7.545 13.7
1/10/2023 2:45:00 AM 6.277222 43.299 7.547 16.65
1/10/2023 3:00:00 AM 5.90889 42.636 7.508 18.9
1/10/2023 3:15:00 AM 5.446112 41.803 7.515 18.85
1/10/2023 3:30:00 AM 5.653888 42.177 7.515 15.55
1/10/2023 3:45:00 AM 5.956111 42.721 7.539 13.05
1/10/2023 4:00:00 AM 6.163889 43.095 7.557 12.45
1/10/2023 4:15:00 AM 6.343333 43.418 7.592 12.75
1/10/2023 4:30:00 AM 6.390554 43.503 7.638 11.65
1/10/2023 4:45:00 AM 6.390554 43.503 7.682 11.85
1/10/2023 5:00:00 AM 6.003333 42.806 7.722 12.05
1/10/2023 5:15:00 AM 5.880555 42.585 7.731 11.05
1/10/2023 5:30:00 AM 5.578333 42.041 7.728 11.65
1/10/2023 5:45:00 AM 5.361112 41.65 7.694 11.4
1/10/2023 6:00:00 AM 5.436666 41.786 7.648 11.3
1/10/2023 6:15:00 AM 5.512223 41.922 7.624 10.95
1/10/2023 6:30:00 AM 5.540555 41.973 7.623 11.15
1/10/2023 6:45:00 AM 5.427223 41.769 7.598 11.2
1/10/2023 7:00:00 AM 5.266666 41.48 7.605 11.25
1/10/2023 7:15:00 AM 5.285555 41.514 7.58 10.85
1/10/2023 7:30:00 AM 5.191112 41.344 7.56 12.1
1/10/2023 7:45:00 AM 5.209999 41.378 7.549 12.15
1/10/2023 8:00:00 AM 5.209999 41.378 7.542 11.95
1/10/2023 8:15:00 AM 5.143888 41.259 7.552 10.85
1/10/2023 8:30:00 AM 5.153334 41.276 7.546 10.55
1/10/2023 8:45:00 AM 5.200556 41.361 7.554 10.65
1/11/2023 12:00:00 AM 4.388332 39.899 7.011 11.05
1/11/2023 12:15:00 AM 4.567778 40.222 7.001 9.95
1/11/2023 12:30:00 AM 4.605556 40.29 7.017 10.8
1/11/2023 12:45:00 AM 4.388332 39.899 7.039 11.05
1/11/2023 1:00:00 AM 4.256111 39.661 7.045 10.6
1/11/2023 1:15:00 AM 4.331667 39.797 7.031 10.3
1/11/2023 1:30:00 AM 4.378889 39.882 7.02 10.15
1/11/2023 1:45:00 AM 4.322222 39.78 7.022 10.15
1/11/2023 2:00:00 AM 4.322222 39.78 7.028 10.1
1/11/2023 2:15:00 AM 4.341111 39.814 7.034 9.65
1/11/2023 2:30:00 AM 4.36 39.848 7.046 9.6
1/11/2023 2:45:00 AM 4.265556 39.678 7.066 9.65
1/11/2023 3:00:00 AM 4.237222 39.627 7.073 9.45
1/11/2023 3:15:00 AM 4.237222 39.627 7.069 9.35
1/11/2023 3:30:00 AM 4.275 39.695 7.063 9.45
1/11/2023 3:45:00 AM 4.218332 39.593 7.083 9.6
1/11/2023 4:00:00 AM 4.161667 39.491 7.092 9.25
1/11/2023 4:15:00 AM 4.133333 39.44 7.085 8.95
1/11/2023 4:30:00 AM 4.123889 39.423 7.066 9.55
1/11/2023 4:45:00 AM 4.123889 39.423 7.053 9.05
1/11/2023 5:00:00 AM 4.048333 39.287 7.055 9.55
1/11/2023 5:15:00 AM 3.944444 39.1 7.042 9.35
1/11/2023 5:30:00 AM 3.916111 39.049 7.025 9.2
1/11/2023 5:45:00 AM 4.02 39.236 7.02 9.65
1/11/2023 6:00:00 AM 3.972778 39.151 7.029 9.7
1/11/2023 6:15:00 AM 3.906667 39.032 7.045 9.4
1/11/2023 6:30:00 AM 3.878333 38.981 7.045 9.4
1/11/2023 6:45:00 AM 3.878333 38.981 7.043 9.4
1/11/2023 7:00:00 AM 3.878333 38.981 7.038 9.35
1/11/2023 7:15:00 AM 3.85 38.93 7.046 9.6
1/11/2023 7:30:00 AM 3.859444 38.947 7.052 9.5
1/11/2023 7:45:00 AM 3.878333 38.981 7.052 9.7
1/11/2023 8:00:00 AM 4.029444 39.253 7.06 9.45
1/11/2023 8:15:00 AM 4.02 39.236 7.073 9.2
1/11/2023 8:30:00 AM 3.972778 39.151 7.106 9.45
1/11/2023 8:45:00 AM 3.972778 39.151 7.125 9.15
1/11/2023 9:00:00 AM 4.076667 39.338 7.147 9.3
1/11/2023 9:15:00 AM 4.152222 39.474 7.172 9.1
1/11/2023 9:30:00 AM 4.114443 39.406 7.206 9.05
1/11/2023 9:45:00 AM 4.048333 39.287 7.228 9.35
1/11/2023 10:00:00 AM 4.067222 39.321 7.241 9.65
1/11/2023 10:15:00 AM 4.076667 39.338 7.244 9.4
1/11/2023 10:30:00 AM 3.991668 39.185 7.251 9.55
1/11/2023 10:45:00 AM 3.963333 39.134 7.242 9.3
1/11/2023 11:00:00 AM 3.982222 39.168 7.232 9.3

These are provisional data and have not been subject to a quality assurance process, but rather are the raw data reported by the instrument.
H: value is above sensor operating range
L: value is below sensor operating range
Offline: station is not reporting data
NC: parameter is not collected at site

Data Availability & Limitations

Uncertainty and potential for error can be associated with environmental monitoring data. Provisional data have not been subject to a quality assurance process, but rather are the raw data reported by the instrument. Data users are cautioned to consider carefully the provisional nature of the information before using it for decisions that concern personal or public safety or the conduct of business that involves substantial monetary or operational consequences.

Approved data are currently available by request by emailing: srbc@srbc.net. Approved data have been subject to a quality assurance process to correct for equipment or fouling drift. Data recorded during equipment malfunctions have been removed.

View Historical Stations that have been discontinued.